Time;durP1;ratioP1;P1;durP2;ratioP2;P2;SDS_P1;SDS_P2;PMS_P1;PMS_P2;Temp;Humidity;BMP_temperature;BMP_pressure;BME280_temperature;BME280_humidity;BME280_pressure;Samples;Min_cycle;Max_cycle;Signal;HPM_P1;HPM_P2
2022/05/10 00:00:57;;;;;;;;;;;;;;;15.98;57.50;101968.78;5049841;28;19936;-57
2022/05/10 00:03:24;;;;;;;;;;;;;;;15.93;57.73;101971.09;5049107;28;20020;-57
2022/05/10 00:05:49;;;;;;;;;;;;;;;15.91;57.77;101973.09;5049609;28;20067;-57
2022/05/10 00:08:15;;;;;;;;;;;;;;;15.88;58.22;101970.75;5050150;28;20410;-57
2022/05/10 00:10:42;;;;;;;;;;;;;;;15.85;58.60;101968.44;5049125;28;19928;-57
2022/05/10 00:13:07;;;;;;;;;;;;;;;15.82;58.25;101966.91;5049154;28;19971;-57
2022/05/10 00:15:33;;;;;;;;;;;;;;;15.82;58.45;101968.75;5051951;28;19956;-57
2022/05/10 00:17:58;;;;;;;;;;;;;;;15.79;58.63;101961.91;5051685;28;19921;-57
2022/05/10 00:20:24;;;;;;;;;;;;;;;15.73;58.57;101960.75;5048317;28;19921;-57
2022/05/10 00:22:50;;;;;;;;;;;;;;;15.71;58.72;101965.44;5050084;28;19973;-57
2022/05/10 00:25:17;;;;;;;;;;;;;;;15.68;59.06;101951.53;5051459;28;19920;-57
2022/05/10 00:27:42;;;;;;;;;;;;;;;15.66;58.99;101942.88;5047669;28;19928;-57
2022/05/10 00:30:07;;;;;;;;;;;;;;;15.65;59.02;101947.41;5048211;28;20284;-56
2022/05/10 00:32:34;;;;;;;;;;;;;;;15.62;59.06;101937.03;5051776;28;19928;-57
2022/05/10 00:34:59;;;;;;;;;;;;;;;15.59;59.22;101937.34;5049603;28;19921;-57
2022/05/10 00:37:25;;;;;;;;;;;;;;;15.57;59.41;101944.69;5050368;28;20022;-57
2022/05/10 00:39:50;;;;;;;;;;;;;;;15.54;59.93;101942.38;5046338;28;20291;-57
2022/05/10 00:42:22;;;;;;;;;;;;;;;15.50;59.72;101933.88;5046019;28;20041;-57
2022/05/10 00:44:49;;;;;;;;;;;;;;;15.45;59.91;101942.38;5052358;28;20389;-57
2022/05/10 00:47:22;;;;;;;;;;;;;;;15.42;60.14;101932.03;5047985;28;20362;-57
2022/05/10 00:49:57;;;;;;;;;;;;;;;15.41;59.73;101934.84;5042910;28;21691;-57
2022/05/10 00:52:29;;;;;;;;;;;;;;;15.39;60.04;101932.34;5049044;28;19920;-58
2022/05/10 00:55:11;;;;;;;;;;;;;;;15.36;59.86;101932.69;5051951;28;19917;-57
2022/05/10 00:57:43;;;;;;;;;;;;;;;15.32;59.91;101921.50;5041739;28;20339;-57
2022/05/10 01:00:10;;;;;;;;;;;;;;;15.31;60.19;101919.00;5036428;28;20272;-57
2022/05/10 01:02:51;;;;;;;;;;;;;;;15.27;60.05;101923.84;5052211;28;19921;-57
2022/05/10 01:05:23;;;;;;;;;;;;;;;15.24;60.19;101923.34;5055222;28;20012;-57
2022/05/10 01:07:52;;;;;;;;;;;;;;;15.23;60.01;101922.47;5056173;28;20279;-58
2022/05/10 01:10:46;;;;;;;;;;;;;;;15.19;60.28;101916.63;5054648;28;19925;-57
2022/05/10 01:13:15;;;;;;;;;;;;;;;15.17;60.60;101913.31;5038529;28;19936;-58
2022/05/10 01:15:44;;;;;;;;;;;;;;;15.13;60.46;101917.31;5053565;28;20893;-57
2022/05/10 01:18:09;;;;;;;;;;;;;;;15.11;60.53;101916.66;5053816;28;19920;-57
2022/05/10 01:20:40;;;;;;;;;;;;;;;15.09;60.50;101907.94;5052058;28;20970;-57
2022/05/10 01:23:28;;;;;;;;;;;;;;;15.09;60.83;101913.28;5052150;28;19928;-57
2022/05/10 01:25:53;;;;;;;;;;;;;;;15.07;60.64;101904.59;5050824;28;20006;-58
2022/05/10 01:28:19;;;;;;;;;;;;;;;15.07;60.53;101901.94;5053246;28;20050;-57
2022/05/10 01:30:44;;;;;;;;;;;;;;;15.05;60.88;101898.59;5054174;28;19924;-57
2022/05/10 01:36:24;;;;;;;;;;;;;;;14.99;60.93;101893.94;5032747;28;20402;-58
2022/05/10 01:38:59;;;;;;;;;;;;;;;14.96;60.80;101889.75;5054314;28;19921;-57
2022/05/10 01:41:30;;;;;;;;;;;;;;;14.93;61.12;101888.25;5043986;28;19921;-57
2022/05/10 01:44:01;;;;;;;;;;;;;;;14.90;61.10;101885.88;5052751;28;20287;-58
2022/05/10 01:46:28;;;;;;;;;;;;;;;14.87;60.96;101886.22;5055106;28;20382;-57
2022/05/10 01:49:08;;;;;;;;;;;;;;;14.84;61.08;101869.69;5053418;28;19921;-57
2022/05/10 01:51:39;;;;;;;;;;;;;;;14.81;61.77;101873.53;5053141;28;20275;-57
2022/05/10 01:54:14;;;;;;;;;;;;;;;14.78;61.34;101869.34;5052782;28;19929;-57
2022/05/10 01:56:40;;;;;;;;;;;;;;;14.78;61.08;101868.50;5054265;28;19928;-57
2022/05/10 01:59:05;;;;;;;;;;;;;;;14.76;61.39;101862.50;5053683;28;20283;-57
2022/05/10 02:01:36;;;;;;;;;;;;;;;14.75;61.24;101871.53;5042494;28;19921;-57
2022/05/10 02:04:12;;;;;;;;;;;;;;;14.74;61.16;101867.13;5051520;28;19928;-57
2022/05/10 02:06:37;;;;;;;;;;;;;;;14.73;61.63;101857.44;5047290;28;19925;-57
2022/05/10 02:09:15;;;;;;;;;;;;;;;14.72;61.70;101863.78;5031987;28;20047;-57
2022/05/10 02:11:43;;;;;;;;;;;;;;;14.72;61.19;101861.13;5047759;28;20359;-57
2022/05/10 02:14:08;;;;;;;;;;;;;;;14.71;61.58;101859.47;5051244;28;20019;-57
2022/05/10 02:16:40;;;;;;;;;;;;;;;14.71;61.73;101854.13;5051289;28;20062;-57
2022/05/10 02:19:17;;;;;;;;;;;;;;;14.71;61.55;101859.47;5052682;28;20474;-57
2022/05/10 02:21:46;;;;;;;;;;;;;;;14.69;61.58;101856.13;5054328;28;19928;-57
2022/05/10 02:24:22;;;;;;;;;;;;;;;14.69;61.82;101848.13;5051685;28;19929;-57
2022/05/10 02:26:52;;;;;;;;;;;;;;;14.68;61.89;101838.41;5053095;28;20286;-57
2022/05/10 02:29:17;;;;;;;;;;;;;;;14.68;61.66;101843.75;5048320;28;19920;-57
2022/05/10 02:34:34;;;;;;;;;;;;;;;14.66;61.95;101835.94;5051925;28;19939;-57
2022/05/10 02:36:59;;;;;;;;;;;;;;;14.65;61.95;101832.41;5049075;28;20368;-57
2022/05/10 02:39:24;;;;;;;;;;;;;;;14.65;61.80;101835.09;5036864;28;19921;-58
2022/05/10 02:41:50;;;;;;;;;;;;;;;14.66;62.25;101831.41;5051820;28;19955;-58
2022/05/10 02:44:15;;;;;;;;;;;;;;;14.66;62.23;101826.06;5034604;28;20379;-57
2022/05/10 02:46:40;;;;;;;;;;;;;;;14.66;61.78;101826.06;5053799;28;19970;-57
2022/05/10 02:49:06;;;;;;;;;;;;;;;14.64;62.23;101833.41;5052953;28;19928;-57
2022/05/10 02:51:31;;;;;;;;;;;;;;;14.64;62.33;101825.41;5058514;28;20385;-57
2022/05/10 02:53:57;;;;;;;;;;;;;;;14.65;61.78;101819.06;5049232;28;19929;-57
2022/05/10 02:56:24;;;;;;;;;;;;;;;14.66;62.33;101818.06;5049425;28;19928;-57
2022/05/10 02:59:05;;;;;;;;;;;;;;;14.66;62.05;101815.41;5052242;28;20276;-57
2022/05/10 03:01:33;;;;;;;;;;;;;;;14.68;62.91;101814.38;5045341;28;20423;-57
2022/05/10 03:03:59;;;;;;;;;;;;;;;14.66;62.96;101812.72;5051622;28;19920;-57
2022/05/10 03:06:25;;;;;;;;;;;;;;;14.65;62.68;101805.72;5053716;28;19938;-57
2022/05/10 03:08:51;;;;;;;;;;;;;;;14.64;62.39;101804.06;5049169;28;19920;-58
2022/05/10 03:11:17;;;;;;;;;;;;;;;14.63;62.54;101807.72;5052930;28;20383;-57
2022/05/10 03:13:43;;;;;;;;;;;;;;;14.61;62.50;101801.69;5053635;28;19954;-57
2022/05/10 03:16:08;;;;;;;;;;;;;;;14.61;62.81;101799.03;5047608;28;20274;-57
2022/05/10 03:18:34;;;;;;;;;;;;;;;14.60;62.96;101793.88;5049077;28;20448;-57
2022/05/10 03:20:59;;;;;;;;;;;;;;;14.58;62.53;101796.72;5053022;28;19917;-57
2022/05/10 03:23:24;;;;;;;;;;;;;;;14.59;62.85;101793.03;5051153;28;20382;-57
2022/05/10 03:25:50;;;;;;;;;;;;;;;14.60;62.82;101789.34;5052438;28;19917;-57
2022/05/10 03:28:15;;;;;;;;;;;;;;;14.58;62.84;101788.69;5049497;28;19921;-58
2022/05/10 03:30:41;;;;;;;;;;;;;;;14.57;62.70;101789.72;5053012;28;19930;-57
2022/05/10 03:33:06;;;;;;;;;;;;;;;14.58;63.26;101788.69;5051106;28;19921;-57
2022/05/10 03:35:31;;;;;;;;;;;;;;;14.58;62.85;101779.84;5049428;28;19982;-58
2022/05/10 03:37:56;;;;;;;;;;;;;;;14.58;63.20;101771.84;5051655;28;19921;-57
2022/05/10 03:40:21;;;;;;;;;;;;;;;14.57;63.09;101775.50;5052997;28;19970;-57
2022/05/10 03:42:47;;;;;;;;;;;;;;;14.58;62.95;101778.03;5052445;28;19986;-57
2022/05/10 03:45:14;;;;;;;;;;;;;;;14.57;63.00;101773.69;5051662;28;20008;-58
2022/05/10 03:47:39;;;;;;;;;;;;;;;14.56;63.26;101772.00;5048985;28;20480;-57
2022/05/10 03:50:05;;;;;;;;;;;;;;;14.55;63.08;101762.31;5050763;28;19917;-57
2022/05/10 03:52:30;;;;;;;;;;;;;;;14.55;63.71;101770.34;5050453;28;19921;-57
2022/05/10 03:54:55;;;;;;;;;;;;;;;14.55;63.45;101770.34;5052978;28;19924;-57
2022/05/10 03:57:21;;;;;;;;;;;;;;;14.54;63.35;101766.00;5049740;28;19975;-57
2022/05/10 03:59:46;;;;;;;;;;;;;;;14.54;63.53;101776.69;5052097;28;20323;-57
2022/05/10 04:02:13;;;;;;;;;;;;;;;14.53;63.02;101767.84;5047060;28;20468;-57
2022/05/10 04:04:38;;;;;;;;;;;;;;;14.53;63.00;101759.84;5050032;28;20721;-58
2022/05/10 04:07:03;;;;;;;;;;;;;;;14.54;63.50;101760.66;5052121;28;19925;-58
2022/05/10 04:09:29;;;;;;;;;;;;;;;14.52;63.38;101760.81;5051592;28;19928;-59
2022/05/10 04:11:54;;;;;;;;;;;;;;;14.53;63.38;101756.31;5050226;28;20003;-57
2022/05/10 04:14:19;;;;;;;;;;;;;;;14.54;63.97;101758.00;5050270;28;19961;-57
2022/05/10 04:16:44;;;;;;;;;;;;;;;14.53;63.43;101751.00;5051207;28;19986;-57
2022/05/10 04:19:09;;;;;;;;;;;;;;;14.55;63.73;101765.00;5050577;28;19921;-57
2022/05/10 04:21:35;;;;;;;;;;;;;;;14.56;63.23;101766.66;5050502;28;19927;-57
2022/05/10 04:24:00;;;;;;;;;;;;;;;14.57;63.64;101762.16;5050989;28;19921;-57
2022/05/10 04:26:25;;;;;;;;;;;;;;;14.57;63.91;101763.00;5051452;28;20015;-57
2022/05/10 04:28:51;;;;;;;;;;;;;;;14.58;63.34;101754.00;5050678;28;19921;-57
2022/05/10 04:31:17;;;;;;;;;;;;;;;14.59;63.70;101760.16;5031686;28;20330;-57
2022/05/10 04:33:42;;;;;;;;;;;;;;;14.61;63.50;101752.84;5049977;28;19929;-57
2022/05/10 04:36:08;;;;;;;;;;;;;;;14.61;63.58;101752.84;5036336;28;20337;-57
2022/05/10 04:38:33;;;;;;;;;;;;;;;14.62;63.63;101751.84;5055322;28;19971;-57
2022/05/10 04:43:43;;;;;;;;;;;;;;;14.63;63.87;101745.50;5054369;28;19927;-57
2022/05/10 04:46:09;;;;;;;;;;;;;;;14.66;63.72;101746.00;5051206;28;20011;-57
2022/05/10 04:48:34;;;;;;;;;;;;;;;14.70;64.07;101740.34;5053792;28;20418;-57
2022/05/10 04:50:59;;;;;;;;;;;;;;;14.71;63.87;101742.00;5053493;28;19921;-57
2022/05/10 04:53:25;;;;;;;;;;;;;;;14.75;63.73;101738.03;5055563;28;19916;-58
2022/05/10 04:55:51;;;;;;;;;;;;;;;14.77;63.33;101742.16;5054329;28;20023;-57
2022/05/10 04:58:16;;;;;;;;;;;;;;;14.81;63.51;101740.03;5050631;28;19921;-57
2022/05/10 05:00:41;;;;;;;;;;;;;;;14.84;64.46;101742.34;5053124;28;19925;-57
2022/05/10 05:03:06;;;;;;;;;;;;;;;14.87;63.71;101742.03;5054900;28;20341;-57
2022/05/10 05:05:32;;;;;;;;;;;;;;;14.90;62.97;101736.34;5052346;28;19924;-57
2022/05/10 05:07:57;;;;;;;;;;;;;;;14.92;64.84;101745.00;5054246;28;19920;-57
2022/05/10 05:10:23;;;;;;;;;;;;;;;14.96;64.27;101739.34;5054301;28;19920;-57
2022/05/10 05:12:48;;;;;;;;;;;;;;;14.99;64.72;101739.84;5054677;28;19921;-57
2022/05/10 05:15:13;;;;;;;;;;;;;;;15.04;64.23;101748.19;5051451;28;19921;-57
2022/05/10 05:17:39;;;;;;;;;;;;;;;15.11;63.72;101751.03;5050556;28;19943;-57
2022/05/10 05:20:04;;;;;;;;;;;;;;;15.16;63.63;101745.97;5051716;28;19921;-56
2022/05/10 05:22:30;;;;;;;;;;;;;;;15.20;63.56;101744.63;5053565;28;19921;-57
2022/05/10 05:24:55;;;;;;;;;;;;;;;15.26;63.72;101742.28;5054860;28;19928;-57
2022/05/10 05:27:20;;;;;;;;;;;;;;;15.30;62.18;101749.78;5052163;28;19940;-58
2022/05/10 05:29:45;;;;;;;;;;;;;;;15.35;63.32;101751.97;5054513;28;20413;-58
2022/05/10 05:32:11;;;;;;;;;;;;;;;15.41;63.27;101753.13;5047917;28;20413;-57
2022/05/10 05:34:36;;;;;;;;;;;;;;;15.44;62.91;101748.25;5053835;28;20287;-58
2022/05/10 05:39:47;;;;;;;;;;;;;;;15.51;63.68;101753.75;5049975;28;19927;-59
2022/05/10 05:42:12;;;;;;;;;;;;;;;15.56;62.43;101755.91;5051396;28;20898;-59
2022/05/10 05:44:37;;;;;;;;;;;;;;;15.59;62.19;101755.56;5052142;28;20016;-59
2022/05/10 05:47:02;;;;;;;;;;;;;;;15.62;62.98;101751.69;5054836;28;19927;-58
2022/05/10 05:49:28;;;;;;;;;;;;;;;15.66;63.37;101745.84;5053186;28;19920;-59
2022/05/10 05:51:56;;;;;;;;;;;;;;;15.69;63.09;101744.69;5055207;28;19924;-58
2022/05/10 05:54:21;;;;;;;;;;;;;;;15.74;62.12;101737.78;5048547;28;19925;-58
2022/05/10 05:56:47;;;;;;;;;;;;;;;15.82;62.90;101744.94;5048263;28;19931;-58
2022/05/10 05:59:12;;;;;;;;;;;;;;;15.86;62.84;101734.72;5043427;28;20312;-57
2022/05/10 06:01:37;;;;;;;;;;;;;;;15.90;62.73;101728.03;5030325;28;19924;-57
2022/05/10 06:04:02;;;;;;;;;;;;;;;15.94;63.55;101721.34;5048782;28;20311;-58
2022/05/10 06:06:28;;;;;;;;;;;;;;;15.98;62.87;101728.00;5043629;28;19956;-59
2022/05/10 06:08:53;;;;;;;;;;;;;;;16.03;62.31;101729.34;5048199;28;20239;-59
2022/05/10 06:11:18;;;;;;;;;;;;;;;16.08;62.33;101735.00;5044203;28;19925;-59
2022/05/10 06:13:44;;;;;;;;;;;;;;;16.14;61.75;101734.28;5048785;28;19991;-59
2022/05/10 06:16:09;;;;;;;;;;;;;;;16.21;62.92;101732.56;5034202;28;19925;-59
2022/05/10 06:18:35;;;;;;;;;;;;;;;16.27;62.14;101733.69;5045694;28;19995;-59
2022/05/10 06:21:00;;;;;;;;;;;;;;;16.35;62.36;101740.84;5044840;28;19923;-59
2022/05/10 06:23:25;;;;;;;;;;;;;;;16.41;62.83;101726.75;5021295;28;19928;-59
2022/05/10 06:25:50;;;;;;;;;;;;;;;16.48;62.72;101722.31;5030689;28;19925;-58
2022/05/10 06:28:16;;;;;;;;;;;;;;;16.54;60.79;101720.78;5047282;28;19936;-58
2022/05/10 06:30:42;;;;;;;;;;;;;;;16.60;61.60;101725.44;5042118;28;19928;-58
2022/05/10 06:33:07;;;;;;;;;;;;;;;16.67;60.89;101725.53;5043601;28;20014;-59
2022/05/10 06:35:32;;;;;;;;;;;;;;;16.71;61.91;101724.16;5030850;28;19953;-59
2022/05/10 06:38:16;;;;;;;;;;;;;;;16.76;61.72;101716.41;5046885;28;19917;-58
2022/05/10 06:40:41;;;;;;;;;;;;;;;16.85;61.16;101717.19;5043612;28;19921;-57
2022/05/10 06:43:06;;;;;;;;;;;;;;;16.91;62.16;101720.97;5043788;28;19920;-58
2022/05/10 06:45:32;;;;;;;;;;;;;;;16.94;61.33;101713.38;5049792;28;20402;-58
2022/05/10 06:47:57;;;;;;;;;;;;;;;17.02;60.97;101717.88;5041157;28;20008;-57
2022/05/10 06:50:24;;;;;;;;;;;;;;;17.09;62.25;101712.63;5045777;28;20465;-58
2022/05/10 06:52:50;;;;;;;;;;;;;;;17.18;61.80;101711.50;5041445;28;19976;-57
2022/05/10 06:55:16;;;;;;;;;;;;;;;17.28;60.99;101716.59;5044580;28;19917;-57
2022/05/10 06:57:41;;;;;;;;;;;;;;;17.34;61.57;101715.03;5041261;28;19925;-57
2022/05/10 07:00:07;;;;;;;;;;;;;;;17.42;61.62;101708.75;5044227;28;20023;-57
2022/05/10 07:02:32;;;;;;;;;;;;;;;17.49;61.47;101701.63;5041378;28;20295;-57
2022/05/10 07:04:58;;;;;;;;;;;;;;;17.55;60.54;101708.91;5045305;28;19917;-58
2022/05/10 07:07:23;;;;;;;;;;;;;;;17.65;60.88;101705.13;5042999;28;19921;-58
2022/05/10 07:09:48;;;;;;;;;;;;;;;17.74;60.09;101698.59;5050011;28;20007;-59
2022/05/10 07:12:14;;;;;;;;;;;;;;;17.90;60.26;101694.06;5049831;28;19916;-56
2022/05/10 07:14:39;;;;;;;;;;;;;;;17.99;59.96;101698.25;5049832;28;19956;-57
2022/05/10 07:17:04;;;;;;;;;;;;;;;18.11;59.55;101693.28;5050185;28;20452;-56
2022/05/10 07:19:29;;;;;;;;;;;;;;;18.13;59.69;101692.06;5049950;28;19979;-57
2022/05/10 07:21:54;;;;;;;;;;;;;;;18.22;59.81;101681.19;5033342;28;19924;-56
2022/05/10 07:24:20;;;;;;;;;;;;;;;18.28;59.40;101683.09;5048308;28;20544;-57
2022/05/10 07:26:46;;;;;;;;;;;;;;;18.37;59.00;101686.47;5047211;28;20343;-56
2022/05/10 07:29:11;;;;;;;;;;;;;;;18.50;59.29;101685.78;5050452;28;20003;-57
2022/05/10 07:31:36;;;;;;;;;;;;;;;18.67;58.28;101679.09;5050088;28;20295;-56
2022/05/10 07:34:02;;;;;;;;;;;;;;;18.78;58.48;101682.25;5051864;28;20011;-56
2022/05/10 07:36:33;;;;;;;;;;;;;;;18.84;58.30;101676.09;5049072;28;20283;-56
2022/05/10 07:38:59;;;;;;;;;;;;;;;18.88;58.21;101677.38;5046552;28;19920;-57
2022/05/10 07:41:24;;;;;;;;;;;;;;;18.92;57.85;101680.50;5049755;28;19925;-55
2022/05/10 07:43:50;;;;;;;;;;;;;;;18.95;58.15;101677.44;5050548;28;19921;-55
2022/05/10 07:46:15;;;;;;;;;;;;;;;19.01;57.61;101675.78;5045040;28;20011;-54
2022/05/10 07:48:40;;;;;;;;;;;;;;;19.11;57.73;101670.94;5044985;28;19925;-54
2022/05/10 07:51:06;;;;;;;;;;;;;;;19.20;57.62;101667.03;5049621;28;20402;-55
2022/05/10 07:53:31;;;;;;;;;;;;;;;19.26;57.19;101668.13;5045554;28;19955;-54
2022/05/10 07:55:57;;;;;;;;;;;;;;;19.32;57.48;101672.69;5047992;28;19936;-54
2022/05/10 07:58:22;;;;;;;;;;;;;;;19.37;57.30;101672.09;5049795;28;19920;-55
2022/05/10 08:00:47;;;;;;;;;;;;;;;19.44;56.50;101672.94;5037676;28;20464;-56
2022/05/10 08:03:14;;;;;;;;;;;;;;;19.53;56.42;101672.78;5040229;28;19928;-54
2022/05/10 08:05:40;;;;;;;;;;;;;;;19.53;56.41;101668.22;5049602;28;19979;-55
2022/05/10 08:08:06;;;;;;;;;;;;;;;19.57;56.45;101674.00;5048813;28;19975;-54
2022/05/10 08:10:32;;;;;;;;;;;;;;;19.63;55.95;101667.81;5048548;28;19929;-54
2022/05/10 08:12:57;;;;;;;;;;;;;;;19.67;55.58;101679.84;5049948;28;20804;-56
2022/05/10 08:15:22;;;;;;;;;;;;;;;19.72;55.50;101671.16;5049454;28;19979;-55
2022/05/10 08:17:48;;;;;;;;;;;;;;;19.84;54.52;101668.72;5045519;28;19964;-54
2022/05/10 08:20:14;;;;;;;;;;;;;;;19.72;55.32;101666.63;5046169;28;22358;-56
2022/05/10 08:22:41;;;;;;;;;;;;;;;19.73;55.21;101668.28;5032738;28;19927;-57
2022/05/10 08:25:06;;;;;;;;;;;;;;;19.83;54.73;101667.06;5046296;28;19928;-57
2022/05/10 08:27:31;;;;;;;;;;;;;;;19.76;55.46;101667.88;5046867;28;19928;-56
2022/05/10 08:29:57;;;;;;;;;;;;;;;19.76;55.32;101667.88;5050393;28;20398;-56
2022/05/10 08:32:22;;;;;;;;;;;;;;;19.81;55.22;101663.75;5048273;28;19964;-56
2022/05/10 08:34:47;;;;;;;;;;;;;;;19.78;54.91;101661.47;5050218;28;20401;-57
2022/05/10 08:37:12;;;;;;;;;;;;;;;19.80;54.75;101662.09;5047430;28;19929;-57
2022/05/10 08:39:39;;;;;;;;;;;;;;;19.80;54.62;101652.16;5048636;28;19940;-56
2022/05/10 08:42:11;;;;;;;;;;;;;;;19.88;54.09;101660.03;5043791;28;19928;-57
2022/05/10 08:44:38;;;;;;;;;;;;;;;19.88;53.98;101659.19;5049979;28;19921;-56
2022/05/10 08:47:06;;;;;;;;;;;;;;;19.85;54.24;101656.94;5047080;28;19929;-56
2022/05/10 08:49:47;;;;;;;;;;;;;;;19.92;53.76;101652.38;5048967;28;19931;-56
2022/05/10 08:52:15;;;;;;;;;;;;;;;19.94;54.12;101653.03;5046326;28;19998;-56
2022/05/10 08:54:41;;;;;;;;;;;;;;;20.07;52.89;101651.41;5047498;28;19921;-56
2022/05/10 08:57:16;;;;;;;;;;;;;;;20.09;53.17;101646.66;5032300;28;20573;-56
2022/05/10 08:59:44;;;;;;;;;;;;;;;20.15;53.05;101645.81;5044372;28;20406;-56
2022/05/10 09:02:13;;;;;;;;;;;;;;;20.23;53.03;101640.22;5049002;28;19971;-57
2022/05/10 09:04:44;;;;;;;;;;;;;;;20.34;53.15;101635.25;5048090;28;20399;-56
2022/05/10 09:07:31;;;;;;;;;;;;;;;20.50;52.86;101632.16;5042464;28;19920;-57
2022/05/10 09:10:01;;;;;;;;;;;;;;;20.67;52.87;101634.41;5050131;28;19932;-56
2022/05/10 09:12:27;;;;;;;;;;;;;;;20.85;51.47;101635.63;5046244;28;19927;-57
2022/05/10 09:14:54;;;;;;;;;;;;;;;20.87;51.62;101625.47;5047288;28;19924;-56
2022/05/10 09:17:20;;;;;;;;;;;;;;;20.98;51.43;101621.28;5049423;28;19920;-56
2022/05/10 09:19:45;;;;;;;;;;;;;;;21.07;51.21;101623.53;5049631;28;19928;-56
2022/05/10 09:22:24;;;;;;;;;;;;;;;21.14;51.30;101628.91;5047903;28;20269;-56
2022/05/10 09:24:52;;;;;;;;;;;;;;;21.25;50.30;101622.03;5049609;28;20007;-57
2022/05/10 09:27:18;;;;;;;;;;;;;;;21.28;51.08;101621.59;5054541;28;19921;-56
2022/05/10 09:29:50;;;;;;;;;;;;;;;21.37;50.41;101628.41;5051349;28;20382;-56
2022/05/10 09:35:01;;;;;;;;;;;;;;;21.45;50.37;101623.78;5049868;28;19966;-56
2022/05/10 09:37:35;;;;;;;;;;;;;;;21.58;49.74;101618.34;5052227;28;19925;-57
2022/05/10 09:40:12;;;;;;;;;;;;;;;21.56;49.21;101615.00;5052541;28;19929;-56
2022/05/10 09:42:42;;;;;;;;;;;;;;;21.64;49.26;101622.88;5049480;28;19935;-57
2022/05/10 09:45:07;;;;;;;;;;;;;;;21.63;49.42;101614.97;5049584;28;19986;-56
2022/05/10 09:47:33;;;;;;;;;;;;;;;21.55;50.17;101618.75;5049500;28;20352;-57
2022/05/10 09:50:19;;;;;;;;;;;;;;;21.57;49.77;101616.66;5047738;28;19944;-56
2022/05/10 09:52:44;;;;;;;;;;;;;;;21.64;49.78;101606.69;5052694;28;20363;-56
2022/05/10 09:55:15;;;;;;;;;;;;;;;21.87;48.68;101604.47;5045882;28;19970;-56
2022/05/10 09:57:42;;;;;;;;;;;;;;;21.92;49.24;101598.41;5046891;28;19928;-56
2022/05/10 10:00:11;;;;;;;;;;;;;;;22.17;47.81;101599.22;5045140;28;20379;-57
2022/05/10 10:02:37;;;;;;;;;;;;;;;22.17;47.99;101585.72;5048858;28;19921;-56
2022/05/10 10:05:24;;;;;;;;;;;;;;;22.31;48.33;101594.53;5052277;28;20015;-56
2022/05/10 10:07:51;;;;;;;;;;;;;;;22.40;46.02;101586.97;5050153;28;19921;-56
2022/05/10 10:10:19;;;;;;;;;;;;;;;22.49;46.86;101584.00;5048645;28;20322;-58
2022/05/10 10:12:45;;;;;;;;;;;;;;;22.68;46.23;101587.56;5050949;28;20395;-57
2022/05/10 10:15:20;;;;;;;;;;;;;;;22.70;46.00;101578.19;5050349;28;19927;-57
2022/05/10 10:17:50;;;;;;;;;;;;;;;22.84;45.38;101575.31;5050645;28;19970;-56
2022/05/10 10:20:21;;;;;;;;;;;;;;;22.91;45.79;101586.06;5046109;28;19928;-56
2022/05/10 10:22:52;;;;;;;;;;;;;;;23.10;45.23;101578.75;5050301;28;19967;-56
2022/05/10 10:25:23;;;;;;;;;;;;;;;23.30;44.48;101575.78;5052784;28;19928;-58
2022/05/10 10:27:58;;;;;;;;;;;;;;;23.37;44.26;101583.84;5053064;28;20405;-58
2022/05/10 10:30:47;;;;;;;;;;;;;;;23.43;43.35;101588.31;5048910;28;19921;-58
2022/05/10 10:33:34;;;;;;;;;;;;;;;23.44;42.88;101583.75;5038334;28;19990;-57
2022/05/10 10:36:18;;;;;;;;;;;;;;;23.63;41.90;101576.41;5050746;28;19929;-58
2022/05/10 10:38:46;;;;;;;;;;;;;;;23.59;42.51;101575.22;5048171;28;19924;-58
2022/05/10 10:41:13;;;;;;;;;;;;;;;23.68;42.63;101581.13;5050390;28;19927;-58
2022/05/10 10:43:45;;;;;;;;;;;;;;;23.75;42.67;101582.66;5046841;28;19928;-59
2022/05/10 10:46:29;;;;;;;;;;;;;;;23.84;41.95;101571.47;5041594;28;19927;-58
2022/05/10 10:48:56;;;;;;;;;;;;;;;23.83;42.92;101569.84;5053590;28;19971;-58
2022/05/10 10:51:23;;;;;;;;;;;;;;;23.95;41.70;101573.38;5054471;28;19924;-58
2022/05/10 10:53:49;;;;;;;;;;;;;;;24.13;40.26;101568.97;5052774;28;19928;-58
2022/05/10 10:56:29;;;;;;;;;;;;;;;23.77;42.03;101567.00;5049093;28;20522;-59
2022/05/10 10:59:20;;;;;;;;;;;;;;;23.73;41.84;101557.69;5051942;28;20009;-59
2022/05/10 11:01:56;;;;;;;;;;;;;;;23.57;42.66;101561.91;5014262;28;19921;-58
2022/05/10 11:04:38;;;;;;;;;;;;;;;23.58;42.29;101551.91;5045563;28;19929;-57
2022/05/10 11:07:12;;;;;;;;;;;;;;;23.47;43.13;101546.22;5048610;28;19925;-59
2022/05/10 11:09:42;;;;;;;;;;;;;;;23.64;42.71;101548.28;5049230;28;19921;-59
2022/05/10 11:12:19;;;;;;;;;;;;;;;23.51;43.02;101542.00;5043843;28;19925;-59
2022/05/10 11:14:47;;;;;;;;;;;;;;;23.57;42.76;101539.41;5045719;28;19982;-59
2022/05/10 11:17:18;;;;;;;;;;;;;;;23.69;42.09;101537.56;5041543;28;19928;-59
2022/05/10 11:20:07;;;;;;;;;;;;;;;23.46;42.73;101533.75;5047520;28;19925;-59
2022/05/10 11:22:39;;;;;;;;;;;;;;;23.62;41.67;101542.25;5046900;28;20011;-58
2022/05/10 11:25:15;;;;;;;;;;;;;;;23.40;42.52;101540.09;5053142;28;19920;-59
2022/05/10 11:27:52;;;;;;;;;;;;;;;23.37;43.16;101532.41;5050861;28;19978;-59
2022/05/10 11:30:27;;;;;;;;;;;;;;;23.45;42.86;101521.28;5047810;28;20268;-58
2022/05/10 11:32:58;;;;;;;;;;;;;;;23.53;43.26;101522.81;5050254;28;20019;-59
2022/05/10 11:35:39;;;;;;;;;;;;;;;23.77;42.58;101515.56;5045670;28;19929;-59
2022/05/10 11:38:04;;;;;;;;;;;;;;;24.13;40.82;101518.28;5044177;28;19928;-59
2022/05/10 11:40:48;;;;;;;;;;;;;;;24.00;41.83;101516.63;5045780;28;19920;-59
2022/05/10 11:43:16;;;;;;;;;;;;;;;24.12;41.41;101507.72;5045550;28;19975;-59
2022/05/10 11:45:58;;;;;;;;;;;;;;;24.02;41.38;101516.38;5050537;28;19974;-55
2022/05/10 11:48:42;;;;;;;;;;;;;;;24.15;40.07;101501.81;5051171;28;19921;-57
2022/05/10 11:51:42;;;;;;;;;;;;;;;24.09;40.03;101502.75;5050461;28;19929;-55
2022/05/10 11:54:10;;;;;;;;;;;;;;;24.00;40.55;101500.38;5050697;28;20070;-55
2022/05/10 11:56:38;;;;;;;;;;;;;;;23.97;41.31;101513.56;5044474;28;19920;-55
2022/05/10 11:59:14;;;;;;;;;;;;;;;24.13;39.78;101495.81;5041726;28;19921;-56
2022/05/10 12:01:39;;;;;;;;;;;;;;;24.22;39.54;101502.50;5041890;28;20055;-59
2022/05/10 12:04:04;;;;;;;;;;;;;;;24.13;40.20;101501.22;5045444;28;20020;-56
2022/05/10 12:06:31;;;;;;;;;;;;;;;24.05;40.42;101500.50;5045341;28;19928;-55
2022/05/10 12:08:57;;;;;;;;;;;;;;;24.09;40.39;101492.75;5044536;28;20391;-56
2022/05/10 12:11:28;;;;;;;;;;;;;;;24.14;40.95;101494.75;5041136;28;19921;-56
2022/05/10 12:22:14;;;;;;;;;;;;;;;24.13;40.19;101501.22;5041176;28;19975;-55
2022/05/10 12:24:44;;;;;;;;;;;;;;;24.02;40.80;101482.00;5040132;28;19928;-56
2022/05/10 12:27:12;;;;;;;;;;;;;;;24.03;41.17;101494.47;5041015;28;20302;-55
2022/05/10 12:29:37;;;;;;;;;;;;;;;24.17;40.59;101488.84;5042699;28;20394;-56
2022/05/10 12:32:06;;;;;;;;;;;;;;;24.33;39.23;101487.31;5037910;28;20359;-55
2022/05/10 12:34:37;;;;;;;;;;;;;;;24.28;38.74;101477.16;5042908;28;19921;-58
2022/05/10 12:37:26;;;;;;;;;;;;;;;24.15;38.74;101475.53;5043766;28;20374;-56
2022/05/10 12:40:02;;;;;;;;;;;;;;;24.30;38.75;101483.19;5041060;28;19943;-56
2022/05/10 12:42:40;;;;;;;;;;;;;;;24.16;39.07;101462.81;5043062;28;20012;-57
2022/05/10 12:45:11;;;;;;;;;;;;;;;24.11;39.24;101462.69;5041323;28;20391;-56
2022/05/10 12:47:45;;;;;;;;;;;;;;;24.04;39.54;101463.59;5039010;28;20544;-57
2022/05/10 12:50:19;;;;;;;;;;;;;;;24.04;38.92;101466.31;5046786;28;20291;-58
2022/05/10 12:52:47;;;;;;;;;;;;;;;24.03;39.01;101453.84;5049757;28;19921;-57
2022/05/10 12:55:24;;;;;;;;;;;;;;;24.01;39.51;101463.25;5054097;28;19924;-57
2022/05/10 12:57:53;;;;;;;;;;;;;;;24.08;39.19;101464.00;5045534;28;19984;-56
2022/05/10 13:00:33;;;;;;;;;;;;;;;23.89;39.03;101449.75;5053785;28;19925;-57
2022/05/10 13:03:05;;;;;;;;;;;;;;;23.91;39.09;101444.91;5049938;28;20378;-57
2022/05/10 13:05:53;;;;;;;;;;;;;;;24.06;38.74;101457.97;5046919;28;19925;-57